createdAt,value
2022-12-29T00:00:25.287Z,10.23
2022-12-29T00:02:55.383Z,10.03
2022-12-29T00:05:23.568Z,12.67
2022-12-29T00:07:52.242Z,7.67
2022-12-29T00:10:21.060Z,7.27
2022-12-29T00:13:25.557Z,7.80
2022-12-29T00:15:53.737Z,8.60
2022-12-29T00:18:24.376Z,8.33
2022-12-29T00:21:14.551Z,7.80
2022-12-29T00:24:00.986Z,7.17
2022-12-29T00:26:46.411Z,7.73
2022-12-29T00:29:36.289Z,8.00
2022-12-29T00:32:23.037Z,7.20
2022-12-29T00:35:10.786Z,7.63
2022-12-29T00:38:05.507Z,9.70
2022-12-29T00:40:50.874Z,8.70
2022-12-29T00:43:38.327Z,7.97
2022-12-29T00:46:06.570Z,8.23
2022-12-29T00:48:54.730Z,7.57
2022-12-29T00:51:25.208Z,7.43
2022-12-29T00:53:55.581Z,8.47
2022-12-29T00:56:26.616Z,8.13
2022-12-29T00:58:55.198Z,8.37
2022-12-29T01:01:24.144Z,6.47
2022-12-29T01:03:54.117Z,6.83
2022-12-29T01:06:26.430Z,7.73
2022-12-29T01:09:09.119Z,7.47
2022-12-29T01:11:38.063Z,6.47
2022-12-29T01:14:06.901Z,6.93
2022-12-29T01:16:38.341Z,7.43
2022-12-29T01:19:10.566Z,7.53
2022-12-29T01:21:41.063Z,7.07
2022-12-29T01:24:09.301Z,6.10
2022-12-29T01:26:38.081Z,6.57
2022-12-29T01:29:08.297Z,9.53
2022-12-29T01:31:37.406Z,6.27
2022-12-29T01:34:06.234Z,8.73
2022-12-29T01:36:36.067Z,7.63
2022-12-29T01:39:06.253Z,6.33
2022-12-29T01:41:38.104Z,9.30
2022-12-29T01:44:40.239Z,6.57
2022-12-29T01:47:11.108Z,5.77
2022-12-29T01:49:40.485Z,7.20
2022-12-29T01:52:10.551Z,5.83
2022-12-29T01:54:48.348Z,6.57
2022-12-29T01:57:24.210Z,5.80
2022-12-29T01:59:58.071Z,5.93
2022-12-29T02:02:28.548Z,7.53
2022-12-29T02:05:11.584Z,5.60
2022-12-29T02:07:41.239Z,5.50
2022-12-29T02:10:14.086Z,7.30
2022-12-29T02:12:43.353Z,7.43
2022-12-29T02:15:12.158Z,5.47
2022-12-29T02:17:51.901Z,5.70
2022-12-29T02:20:40.263Z,8.37
2022-12-29T02:23:31.057Z,6.60
2022-12-29T02:26:27.242Z,6.40
2022-12-29T02:29:34.732Z,6.23
2022-12-29T02:32:12.200Z,7.73
2022-12-29T02:34:49.993Z,6.57
2022-12-29T02:37:25.671Z,6.50
2022-12-29T02:40:03.103Z,7.90
2022-12-29T02:42:39.271Z,6.60
2022-12-29T02:45:15.267Z,5.97
2022-12-29T02:47:54.600Z,6.23
2022-12-29T02:50:27.076Z,5.97
2022-12-29T02:53:02.551Z,6.63
2022-12-29T02:55:29.739Z,6.53
2022-12-29T02:58:20.063Z,6.20
2022-12-29T03:01:04.254Z,7.03
2022-12-29T03:03:47.296Z,6.00
2022-12-29T03:06:29.104Z,7.70
2022-12-29T03:09:04.250Z,7.10
2022-12-29T03:11:58.089Z,5.97
2022-12-29T03:14:52.149Z,5.13
2022-12-29T03:17:28.256Z,6.43
2022-12-29T03:20:09.178Z,6.37
2022-12-29T03:23:07.619Z,6.10
2022-12-29T03:25:43.119Z,5.53
2022-12-29T03:28:20.837Z,5.53
2022-12-29T03:30:51.698Z,5.87
2022-12-29T03:33:25.913Z,7.80
2022-12-29T03:36:00.864Z,5.87
2022-12-29T03:38:38.276Z,5.40
2022-12-29T03:41:11.092Z,5.47
2022-12-29T03:43:40.252Z,7.23
2022-12-29T03:46:09.003Z,5.77
2022-12-29T03:48:46.605Z,4.77
2022-12-29T03:51:17.098Z,5.47
2022-12-29T03:53:48.555Z,5.27
2022-12-29T03:56:16.730Z,4.60
2022-12-29T03:58:48.320Z,5.50
2022-12-29T04:01:21.781Z,5.87
2022-12-29T04:03:52.395Z,4.57
2022-12-29T04:06:24.660Z,6.70
2022-12-29T04:09:02.922Z,6.03
2022-12-29T04:11:36.269Z,4.93
2022-12-29T04:14:06.469Z,6.30
2022-12-29T04:16:36.767Z,7.77
2022-12-29T04:19:07.307Z,6.37
2022-12-29T04:21:38.586Z,5.63
2022-12-29T04:24:08.152Z,6.90
2022-12-29T04:26:41.517Z,7.23
2022-12-29T04:29:35.364Z,6.20
2022-12-29T04:32:27.182Z,5.53
2022-12-29T04:34:59.359Z,5.00
2022-12-29T04:37:29.315Z,5.47
2022-12-29T04:40:00.400Z,6.57
2022-12-29T04:42:30.383Z,4.90
2022-12-29T04:44:58.821Z,5.57
2022-12-29T04:47:49.210Z,5.97
2022-12-29T04:50:45.463Z,7.63
2022-12-29T04:53:20.873Z,7.80
2022-12-29T04:55:51.908Z,7.13
2022-12-29T04:58:23.052Z,6.67
2022-12-29T05:00:54.977Z,7.37
2022-12-29T05:03:26.356Z,6.83
2022-12-29T05:05:57.126Z,10.13
2022-12-29T05:08:28.558Z,8.47
2022-12-29T05:11:00.336Z,7.13
2022-12-29T05:13:30.622Z,6.03
2022-12-29T05:16:01.629Z,7.50
2022-12-29T05:18:30.357Z,7.47
2022-12-29T05:21:00.432Z,8.80
2022-12-29T05:23:32.319Z,7.87
2022-12-29T05:26:04.291Z,8.30
2022-12-29T05:28:48.332Z,7.37
2022-12-29T05:31:21.230Z,8.00
2022-12-29T05:33:52.374Z,9.27
2022-12-29T05:36:22.047Z,10.93
2022-12-29T05:38:56.335Z,8.87
2022-12-29T05:41:26.188Z,9.97
2022-12-29T05:44:13.036Z,12.70
2022-12-29T05:46:51.300Z,10.03
2022-12-29T05:49:26.455Z,9.03
2022-12-29T05:52:00.191Z,9.87
2022-12-29T05:54:33.551Z,10.90
2022-12-29T05:57:04.516Z,9.13
2022-12-29T05:59:35.330Z,12.27
2022-12-29T06:02:04.480Z,14.43
2022-12-29T06:04:33.425Z,12.93
2022-12-29T06:07:02.358Z,8.70
2022-12-29T06:09:40.980Z,9.63
2022-12-29T06:12:10.065Z,9.47
2022-12-29T06:14:41.648Z,7.97
2022-12-29T06:17:16.245Z,9.10
2022-12-29T06:19:46.087Z,9.70
2022-12-29T06:22:14.576Z,8.43
2022-12-29T06:24:46.513Z,7.57
2022-12-29T06:27:15.398Z,8.07
2022-12-29T06:29:45.640Z,8.93
2022-12-29T06:32:16.594Z,9.27
2022-12-29T06:34:53.672Z,8.50
2022-12-29T06:37:24.465Z,8.37
2022-12-29T06:39:54.337Z,7.60
2022-12-29T06:42:23.350Z,8.20
2022-12-29T06:45:12.180Z,12.37
2022-12-29T06:47:41.617Z,8.10
2022-12-29T06:50:11.373Z,8.50
2022-12-29T06:52:39.771Z,10.37
2022-12-29T06:55:10.112Z,10.20
2022-12-29T06:57:39.118Z,7.07
2022-12-29T07:00:11.740Z,8.87
2022-12-29T07:02:43.453Z,9.87
2022-12-29T07:05:11.790Z,7.77
2022-12-29T07:07:40.352Z,8.17
2022-12-29T07:10:11.230Z,7.43
2022-12-29T07:12:39.645Z,6.90
2022-12-29T07:15:11.513Z,10.07
2022-12-29T07:17:40.371Z,7.00
2022-12-29T07:20:10.435Z,8.80
2022-12-29T07:22:39.669Z,9.43
2022-12-29T07:25:10.225Z,7.97
2022-12-29T07:27:40.611Z,6.57
2022-12-29T07:30:09.999Z,8.10
2022-12-29T07:32:40.197Z,7.77
2022-12-29T07:35:09.333Z,11.47
2022-12-29T07:37:38.403Z,6.53
2022-12-29T07:40:08.653Z,7.03
2022-12-29T07:42:41.874Z,7.97
2022-12-29T07:45:15.530Z,6.20
2022-12-29T07:47:52.363Z,8.43
2022-12-29T07:50:24.317Z,6.23
2022-12-29T07:52:53.350Z,7.70
2022-12-29T07:55:24.402Z,7.67
2022-12-29T07:57:55.061Z,7.90
2022-12-29T08:00:23.679Z,7.47
2022-12-29T08:02:53.731Z,8.10
2022-12-29T08:05:21.987Z,5.07
2022-12-29T08:07:50.447Z,6.37
2022-12-29T08:10:18.832Z,6.70
2022-12-29T08:12:47.017Z,8.07
2022-12-29T08:15:19.497Z,6.53
2022-12-29T08:17:47.787Z,6.20
2022-12-29T08:20:15.970Z,7.00
2022-12-29T08:22:44.091Z,7.23
2022-12-29T08:25:16.339Z,8.37
2022-12-29T08:27:47.708Z,6.27
2022-12-29T08:30:17.478Z,6.90
2022-12-29T08:32:45.692Z,8.30
2022-12-29T08:35:14.248Z,5.53
2022-12-29T08:37:45.931Z,5.57
2022-12-29T08:40:17.294Z,6.90
2022-12-29T08:42:45.978Z,6.33
2022-12-29T08:45:14.242Z,6.57
2022-12-29T08:47:43.927Z,7.60
2022-12-29T08:50:15.771Z,8.43
2022-12-29T08:52:44.540Z,7.03
2022-12-29T08:55:12.754Z,5.00
2022-12-29T08:57:41.274Z,8.00
2022-12-29T09:00:17.084Z,6.27
2022-12-29T09:02:46.930Z,6.00
2022-12-29T09:05:15.262Z,5.43
2022-12-29T09:07:43.719Z,7.77
2022-12-29T09:10:12.118Z,6.10
2022-12-29T09:12:40.789Z,6.80
2022-12-29T09:15:13.821Z,5.53
2022-12-29T09:17:45.568Z,8.23
2022-12-29T09:20:20.037Z,7.20
2022-12-29T09:22:49.374Z,5.83
2022-12-29T09:25:17.861Z,5.93
2022-12-29T09:27:45.968Z,5.57
2022-12-29T09:30:15.724Z,6.17
2022-12-29T09:32:45.852Z,7.77
2022-12-29T09:35:18.242Z,6.30
2022-12-29T09:37:47.407Z,5.97
2022-12-29T09:40:27.241Z,6.37
2022-12-29T09:43:07.657Z,5.40
2022-12-29T09:45:40.436Z,5.73
2022-12-29T09:48:20.052Z,7.27
2022-12-29T09:50:53.887Z,5.20
2022-12-29T09:53:27.129Z,6.00
2022-12-29T09:55:58.931Z,6.23
2022-12-29T09:58:32.357Z,6.53
2022-12-29T10:01:04.792Z,6.77
2022-12-29T10:03:42.486Z,6.30
2022-12-29T10:06:16.052Z,5.97
2022-12-29T10:08:51.150Z,6.00
2022-12-29T10:11:33.253Z,5.73
2022-12-29T10:14:27.809Z,6.17
2022-12-29T10:17:05.526Z,6.83
2022-12-29T10:19:50.806Z,6.63
2022-12-29T10:22:33.437Z,5.97
2022-12-29T10:25:04.833Z,6.20
2022-12-29T10:27:35.041Z,5.50
2022-12-29T10:30:05.362Z,6.20
2022-12-29T10:32:39.536Z,10.07
2022-12-29T10:35:15.259Z,4.60
2022-12-29T10:37:52.571Z,4.80
2022-12-29T10:40:27.066Z,7.03
2022-12-29T10:42:58.701Z,6.70
2022-12-29T10:45:31.517Z,6.77
2022-12-29T10:48:03.121Z,7.07
2022-12-29T10:51:01.568Z,5.77
2022-12-29T10:53:40.645Z,10.13
2022-12-29T10:56:18.897Z,9.40
2022-12-29T10:58:50.574Z,6.93
2022-12-29T11:01:22.505Z,5.70
2022-12-29T11:04:04.885Z,4.93
2022-12-29T11:06:33.167Z,6.30
2022-12-29T11:09:14.616Z,5.07
2022-12-29T11:11:43.434Z,9.10
2022-12-29T11:14:16.050Z,6.67
2022-12-29T11:16:47.463Z,5.53
2022-12-29T11:19:23.936Z,9.03
2022-12-29T11:21:56.462Z,5.50
2022-12-29T11:24:28.449Z,7.17
2022-12-29T11:26:59.287Z,8.27
2022-12-29T11:29:30.247Z,7.13
2022-12-29T11:32:00.546Z,10.13
2022-12-29T11:34:37.982Z,6.50
2022-12-29T11:37:09.527Z,6.53
2022-12-29T11:39:44.023Z,5.73
2022-12-29T11:42:18.088Z,7.43
2022-12-29T11:44:48.554Z,6.43
2022-12-29T11:47:31.661Z,9.50
2022-12-29T11:50:02.755Z,6.30
2022-12-29T11:52:36.148Z,6.30
2022-12-29T11:55:09.081Z,9.03
2022-12-29T11:57:38.470Z,7.57
2022-12-29T12:00:18.398Z,6.63
2022-12-29T12:02:56.782Z,9.67
2022-12-29T12:05:32.055Z,7.03
2022-12-29T12:08:06.660Z,6.17
2022-12-29T12:10:43.817Z,5.73
2022-12-29T12:13:24.796Z,7.57
2022-12-29T12:16:01.029Z,7.17
2022-12-29T12:18:40.109Z,8.10
2022-12-29T12:21:15.567Z,5.60
2022-12-29T12:23:56.225Z,7.87
2022-12-29T12:26:32.135Z,8.47
2022-12-29T12:29:06.997Z,8.13
2022-12-29T12:31:45.272Z,6.70
2022-12-29T12:34:23.607Z,5.67
2022-12-29T12:37:17.131Z,6.83
2022-12-29T12:39:58.174Z,6.60
2022-12-29T12:42:44.523Z,7.67
2022-12-29T12:45:34.352Z,9.03
2022-12-29T12:48:14.620Z,7.37
2022-12-29T12:50:57.334Z,8.23
2022-12-29T12:53:40.555Z,8.43
2022-12-29T12:56:28.578Z,7.87
2022-12-29T12:59:09.761Z,9.07
2022-12-29T13:01:50.668Z,5.60
2022-12-29T13:04:43.829Z,7.77
2022-12-29T13:07:24.322Z,9.87
2022-12-29T13:10:10.786Z,6.43
2022-12-29T13:12:50.590Z,6.83
2022-12-29T13:15:32.956Z,6.27
2022-12-29T13:18:09.518Z,6.53
2022-12-29T13:20:44.559Z,7.93
2022-12-29T13:23:22.369Z,7.30
2022-12-29T13:25:58.315Z,8.10
2022-12-29T13:28:32.007Z,11.00
2022-12-29T13:31:08.520Z,8.23
2022-12-29T13:33:47.328Z,8.80
2022-12-29T13:36:26.418Z,6.70
2022-12-29T13:39:08.542Z,8.07
2022-12-29T13:41:41.661Z,6.13
2022-12-29T13:44:14.518Z,5.83
2022-12-29T13:46:47.669Z,6.93
2022-12-29T13:49:20.546Z,10.43
2022-12-29T13:51:52.709Z,6.53
2022-12-29T13:54:31.519Z,5.47
2022-12-29T13:57:09.083Z,8.23
2022-12-29T13:59:45.568Z,6.17
2022-12-29T14:02:23.444Z,5.83
2022-12-29T14:05:01.819Z,9.77
2022-12-29T14:07:32.586Z,6.93
2022-12-29T14:10:00.854Z,6.27
2022-12-29T14:12:35.246Z,7.63
2022-12-29T14:15:25.652Z,7.37
2022-12-29T14:18:14.441Z,7.70
2022-12-29T14:20:51.876Z,7.37
2022-12-29T14:23:41.936Z,7.70
2022-12-29T14:26:16.268Z,8.20
2022-12-29T14:28:50.658Z,5.70
2022-12-29T14:31:42.064Z,5.43
2022-12-29T14:34:32.710Z,11.17
2022-12-29T14:37:03.352Z,5.90
2022-12-29T14:39:39.628Z,6.40
2022-12-29T14:42:12.941Z,6.33
2022-12-29T14:44:50.719Z,6.60
2022-12-29T14:47:25.632Z,8.57
2022-12-29T14:49:56.442Z,6.77
2022-12-29T14:52:28.150Z,9.03
2022-12-29T14:54:57.458Z,8.53
2022-12-29T14:57:39.344Z,7.03
2022-12-29T15:00:20.367Z,8.00
2022-12-29T15:02:54.622Z,5.67
2022-12-29T15:05:31.964Z,8.60
2022-12-29T15:08:05.277Z,9.97
2022-12-29T15:10:39.304Z,11.20
2022-12-29T15:13:17.239Z,6.80
2022-12-29T15:15:45.975Z,9.30
2022-12-29T15:18:25.727Z,8.87
2022-12-29T15:20:57.434Z,7.33
2022-12-29T15:23:30.627Z,7.67
2022-12-29T15:26:01.567Z,10.13
2022-12-29T15:28:40.584Z,7.47
2022-12-29T15:31:14.368Z,5.90
2022-12-29T15:33:48.467Z,6.80
2022-12-29T15:36:23.572Z,11.60
2022-12-29T15:38:54.529Z,6.83
2022-12-29T15:41:29.957Z,7.67
2022-12-29T15:44:11.656Z,5.73
2022-12-29T15:46:40.105Z,8.67
2022-12-29T15:49:14.235Z,8.63
2022-12-29T15:51:44.769Z,8.60
2022-12-29T15:54:18.850Z,7.30
2022-12-29T15:56:50.937Z,7.23
2022-12-29T15:59:30.005Z,12.43
2022-12-29T16:01:59.540Z,7.83
2022-12-29T16:04:53.779Z,7.97
2022-12-29T16:07:34.385Z,7.97
2022-12-29T16:10:06.474Z,8.87
2022-12-29T16:12:37.311Z,7.67
2022-12-29T16:15:09.435Z,7.67
2022-12-29T16:17:48.825Z,9.67
2022-12-29T16:20:21.067Z,6.77
2022-12-29T16:22:54.767Z,8.27
2022-12-29T16:25:25.939Z,10.67
2022-12-29T16:27:55.319Z,9.07
2022-12-29T16:30:31.217Z,9.00
2022-12-29T16:33:03.029Z,9.57
2022-12-29T16:35:40.302Z,6.90
2022-12-29T16:38:18.565Z,8.17
2022-12-29T16:40:54.049Z,6.23
2022-12-29T16:43:26.193Z,7.43
2022-12-29T16:46:27.492Z,6.40
2022-12-29T16:48:57.140Z,9.00
2022-12-29T16:51:37.507Z,10.47
2022-12-29T16:54:08.374Z,7.87
2022-12-29T16:56:39.912Z,7.57
2022-12-29T16:59:10.903Z,8.40
2022-12-29T17:01:40.575Z,11.47
2022-12-29T17:04:16.541Z,7.47
2022-12-29T17:06:44.834Z,9.97
2022-12-29T17:09:24.023Z,7.80
2022-12-29T17:12:03.040Z,8.17
2022-12-29T17:14:46.658Z,9.10
2022-12-29T17:17:21.845Z,7.53
2022-12-29T17:19:53.457Z,10.63
2022-12-29T17:22:26.118Z,7.73
2022-12-29T17:24:56.741Z,7.27
2022-12-29T17:27:31.768Z,6.87
2022-12-29T17:30:03.730Z,8.60
2022-12-29T17:32:35.990Z,7.60
2022-12-29T17:35:05.561Z,6.90
2022-12-29T17:37:36.951Z,8.00
2022-12-29T17:40:14.596Z,8.73
2022-12-29T17:42:45.451Z,10.37
2022-12-29T17:45:20.421Z,11.33
2022-12-29T17:47:49.027Z,12.20
2022-12-29T17:50:18.980Z,11.17
2022-12-29T17:52:51.218Z,8.40
2022-12-29T17:55:22.148Z,9.70
2022-12-29T17:57:50.713Z,8.53
2022-12-29T18:00:20.571Z,7.80
2022-12-29T18:02:49.793Z,8.73
2022-12-29T18:05:21.851Z,8.97
2022-12-29T18:07:50.998Z,8.37
2022-12-29T18:10:20.777Z,9.00
2022-12-29T18:12:51.024Z,8.93
2022-12-29T18:15:27.091Z,8.60
2022-12-29T18:17:58.192Z,8.53
2022-12-29T18:20:26.762Z,10.27
2022-12-29T18:22:55.146Z,9.93
2022-12-29T18:25:27.643Z,9.73
2022-12-29T18:27:56.900Z,9.80
2022-12-29T18:30:25.072Z,11.27
2022-12-29T18:32:54.587Z,8.43
2022-12-29T18:35:27.707Z,10.20
2022-12-29T18:37:55.890Z,8.70
2022-12-29T18:40:25.451Z,8.50
2022-12-29T18:42:54.347Z,9.00
2022-12-29T18:45:26.933Z,10.00
2022-12-29T18:47:55.150Z,13.90
2022-12-29T18:50:24.518Z,8.43
2022-12-29T18:52:56.119Z,8.50
2022-12-29T18:55:29.980Z,10.83
2022-12-29T18:57:58.816Z,9.30
2022-12-29T19:00:26.957Z,8.33
2022-12-29T19:02:55.462Z,10.80
2022-12-29T19:05:26.534Z,9.23
2022-12-29T19:07:56.261Z,10.73
2022-12-29T19:10:26.280Z,11.03
2022-12-29T19:12:56.187Z,10.40
2022-12-29T19:15:27.429Z,10.10
2022-12-29T19:18:41.630Z,11.23
2022-12-29T19:20:49.895Z,11.27
2022-12-29T19:23:20.754Z,10.97
2022-12-29T19:25:50.000Z,7.90
2022-12-29T19:28:22.560Z,9.73
2022-12-29T19:30:57.470Z,11.90
2022-12-29T19:33:26.654Z,9.67
2022-12-29T19:35:59.143Z,10.57
2022-12-29T19:38:27.539Z,13.80
2022-12-29T19:40:55.675Z,13.80
2022-12-29T19:43:25.322Z,10.37
2022-12-29T19:45:53.886Z,10.53
2022-12-29T19:48:22.246Z,9.47
2022-12-29T19:50:51.005Z,12.57
2022-12-29T19:53:19.872Z,10.53
2022-12-29T19:55:49.011Z,12.03
2022-12-29T19:58:17.282Z,12.80
2022-12-29T20:00:46.838Z,9.53
2022-12-29T20:03:15.152Z,12.80
2022-12-29T20:05:43.317Z,12.87
2022-12-29T20:08:11.507Z,10.07
2022-12-29T20:10:39.760Z,9.97
2022-12-29T20:13:07.975Z,10.90
2022-12-29T20:15:36.316Z,11.30
2022-12-29T20:18:13.841Z,12.03
2022-12-29T20:20:43.534Z,11.87
2022-12-29T20:23:11.984Z,8.70
2022-12-29T20:25:45.325Z,10.43
2022-12-29T20:28:16.849Z,10.97
2022-12-29T20:30:45.565Z,9.80
2022-12-29T20:33:15.327Z,10.27
2022-12-29T20:35:43.653Z,10.50
2022-12-29T20:38:11.879Z,10.73
2022-12-29T20:40:46.633Z,8.97
2022-12-29T20:43:19.484Z,12.27
2022-12-29T20:45:51.538Z,11.60
2022-12-29T20:48:21.286Z,10.60
2022-12-29T20:50:49.621Z,11.30
2022-12-29T20:53:18.605Z,10.90
2022-12-29T20:55:47.693Z,14.77
2022-12-29T20:58:23.912Z,11.07
2022-12-29T21:00:55.573Z,9.27
2022-12-29T21:03:28.631Z,9.27
2022-12-29T21:05:56.895Z,9.47
2022-12-29T21:08:25.445Z,9.40
2022-12-29T21:10:54.256Z,8.77
2022-12-29T21:13:23.589Z,9.87
2022-12-29T21:15:57.200Z,10.70
2022-12-29T21:18:27.474Z,8.53
2022-12-29T21:20:58.101Z,9.53
2022-12-29T21:23:26.637Z,9.87
2022-12-29T21:25:55.072Z,10.60
2022-12-29T21:28:24.977Z,8.37
2022-12-29T21:30:53.456Z,10.23
2022-12-29T21:33:22.965Z,9.03
2022-12-29T21:35:52.518Z,9.57
2022-12-29T21:38:20.807Z,11.40
2022-12-29T21:40:49.063Z,10.33
2022-12-29T21:43:18.431Z,8.97
2022-12-29T21:45:49.994Z,11.00
2022-12-29T21:48:28.918Z,10.57
2022-12-29T21:51:30.323Z,9.53
2022-12-29T21:54:22.560Z,12.47
2022-12-29T21:56:53.334Z,12.20
2022-12-29T21:59:40.133Z,10.40
2022-12-29T22:02:36.235Z,10.00
2022-12-29T22:05:23.749Z,11.50
2022-12-29T22:08:12.546Z,11.17
2022-12-29T22:11:00.480Z,9.13
2022-12-29T22:13:31.593Z,10.27
2022-12-29T22:15:59.933Z,12.73
2022-12-29T22:18:30.165Z,10.93
2022-12-29T22:20:58.413Z,10.33
2022-12-29T22:23:28.767Z,9.93
2022-12-29T22:25:59.567Z,9.07
2022-12-29T22:28:27.797Z,10.13
2022-12-29T22:30:56.242Z,11.40
2022-12-29T22:33:25.634Z,9.77
2022-12-29T22:35:53.766Z,10.47
2022-12-29T22:38:26.254Z,10.93
2022-12-29T22:41:01.388Z,10.57
2022-12-29T22:43:30.609Z,9.03
2022-12-29T22:46:04.332Z,8.90
2022-12-29T22:48:34.724Z,11.33
2022-12-29T22:51:02.954Z,8.77
2022-12-29T22:53:31.818Z,8.33
2022-12-29T22:56:06.629Z,8.60
2022-12-29T22:58:36.767Z,9.60
2022-12-29T23:01:05.627Z,11.33
2022-12-29T23:03:33.979Z,9.80
2022-12-29T23:06:03.904Z,9.40
2022-12-29T23:08:34.924Z,8.73
2022-12-29T23:11:05.766Z,9.37
2022-12-29T23:13:38.052Z,10.03
2022-12-29T23:16:06.846Z,10.23
2022-12-29T23:18:38.751Z,11.07
2022-12-29T23:21:07.771Z,8.60
2022-12-29T23:23:56.100Z,11.23
2022-12-29T23:26:27.274Z,10.37
2022-12-29T23:29:00.193Z,9.23
2022-12-29T23:31:30.183Z,8.03
2022-12-29T23:34:00.346Z,11.53
2022-12-29T23:36:29.234Z,8.73
2022-12-29T23:38:58.787Z,9.90
2022-12-29T23:41:29.385Z,10.13
2022-12-29T23:43:58.781Z,9.40
2022-12-29T23:46:29.663Z,8.10
2022-12-29T23:48:58.756Z,10.33
2022-12-29T23:51:27.637Z,9.70
2022-12-29T23:53:59.597Z,9.93
2022-12-29T23:56:31.379Z,8.87
2022-12-29T23:58:59.796Z,8.90
